Time;durP1;ratioP1;P1;durP2;ratioP2;P2;SDS_P1;SDS_P2;PMS_P1;PMS_P2;Temp;Humidity;BMP_temperature;BMP_pressure;BME280_temperature;BME280_humidity;BME280_pressure;Samples;Min_cycle;Max_cycle;Signal;HPM_P1;HPM_P2
2021/04/30 00:02:06;;;;;;;16.83;7.30;;;;;;;7.81;70.11;101045.66;4956700;28;20050;-49
2021/04/30 00:04:35;;;;;;;17.45;6.88;;;;;;;7.78;70.36;101051.56;4956663;28;20043;-52
2021/04/30 00:07:02;;;;;;;17.35;6.47;;;;;;;7.76;70.17;101040.16;4956971;28;20046;-55
2021/04/30 00:09:31;;;;;;;15.10;6.82;;;;;;;7.77;70.21;101032.81;4955723;28;20506;-52
2021/04/30 00:11:59;;;;;;;17.70;7.45;;;;;;;7.78;70.19;101042.63;4956871;28;20173;-53
2021/04/30 00:14:27;;;;;;;14.18;7.05;;;;;;;7.74;70.31;101034.13;4956580;28;20051;-52
2021/04/30 00:16:54;;;;;;;18.27;7.25;;;;;;;7.75;70.57;101045.84;4956683;28;20044;-54
2021/04/30 00:19:21;;;;;;;18.52;6.90;;;;;;;7.77;71.11;101047.22;4956353;28;20059;-52
2021/04/30 00:21:48;;;;;;;15.40;6.88;;;;;;;7.81;71.15;101039.41;4956055;28;20114;-52
2021/04/30 00:24:16;;;;;;;15.07;6.47;;;;;;;7.84;71.00;101039.75;4955715;28;20047;-53
2021/04/30 00:26:43;;;;;;;15.85;7.07;;;;;;;7.87;70.55;101039.28;4956645;28;20039;-55
2021/04/30 00:29:10;;;;;;;13.43;6.28;;;;;;;7.87;70.31;101038.44;4956493;28;20052;-51
2021/04/30 00:31:37;;;;;;;17.88;6.53;;;;;;;7.92;69.98;101035.81;4956158;28;20087;-51
2021/04/30 00:34:05;;;;;;;18.02;7.85;;;;;;;7.95;69.82;101043.47;4941980;29;20052;-51
2021/04/30 00:36:32;;;;;;;15.15;6.53;;;;;;;7.93;70.25;101040.16;4956165;28;20052;-52
2021/04/30 00:39:00;;;;;;;16.60;7.05;;;;;;;7.90;69.64;101035.25;4954109;29;20082;-53
2021/04/30 00:41:27;;;;;;;17.10;6.55;;;;;;;7.84;70.02;101038.91;4956351;28;20071;-51
2021/04/30 00:44:07;;;;;;;13.10;6.20;;;;;;;7.82;70.62;101035.66;4955939;28;20074;-52
2021/04/30 00:46:34;;;;;;;;;;;;;;;7.80;70.75;101037.78;4956757;28;20050;-51
2021/04/30 00:49:01;;;;;;;16.85;6.07;;;;;;;7.81;70.92;101034.00;4956050;28;19929;-52
2021/04/30 00:51:29;;;;;;;12.40;5.63;;;;;;;7.82;70.23;101038.38;4955744;28;20430;-54
2021/04/30 00:53:56;;;;;;;15.80;6.20;;;;;;;7.82;70.35;101036.47;4955190;28;20446;-53
2021/04/30 00:56:24;;;;;;;14.77;6.47;;;;;;;7.85;70.07;101040.59;4956064;28;20106;-52
2021/04/30 00:58:51;;;;;;;16.13;6.35;;;;;;;7.84;70.06;101044.34;4955891;28;20109;-53
2021/04/30 01:01:19;;;;;;;15.85;7.13;;;;;;;7.82;70.53;101041.06;4942527;29;20043;-52
2021/04/30 01:03:47;;;;;;;19.42;6.47;;;;;;;7.80;70.38;101033.16;4956023;28;20498;-52
2021/04/30 01:06:14;;;;;;;16.42;6.50;;;;;;;7.81;70.19;101039.41;4955742;28;20055;-55
2021/04/30 01:08:42;;;;;;;18.60;6.90;;;;;;;7.80;69.65;101040.50;4955464;28;20501;-52
2021/04/30 01:11:09;;;;;;;14.35;6.50;;;;;;;7.76;70.12;101044.75;4954740;28;20139;-55
2021/04/30 01:13:36;;;;;;;17.92;6.72;;;;;;;7.81;70.42;101047.56;4955510;28;20062;-51
2021/04/30 01:16:04;;;;;;;18.50;6.65;;;;;;;7.83;69.99;101048.13;4954532;29;20047;-54
2021/04/30 01:18:47;;;;;;;14.30;6.45;;;;;;;7.85;70.57;101051.44;4955404;28;20070;-54
2021/04/30 01:21:15;;;;;;;14.55;5.85;;;;;;;7.89;69.59;101053.41;4955572;28;20090;-54
2021/04/30 01:24:00;;;;;;;11.88;5.78;;;;;;;7.92;70.09;101052.09;4954723;28;20039;-53
2021/04/30 01:26:27;;;;;;;14.48;6.53;;;;;;;7.92;70.13;101056.72;4954361;29;20101;-54
2021/04/30 01:28:54;;;;;;;15.25;6.18;;;;;;;7.87;70.24;101065.56;4955046;28;20071;-55
2021/04/30 01:31:22;;;;;;;13.95;6.28;;;;;;;7.86;70.50;101063.91;4947701;28;20090;-54
2021/04/30 01:33:56;;;;;;;13.48;6.43;;;;;;;7.85;70.25;101062.28;4954030;28;20059;-53
2021/04/30 01:36:23;;;;;;;15.05;5.78;;;;;;;7.83;70.51;101067.94;4953822;28;20066;-55
2021/04/30 01:38:50;;;;;;;17.63;6.25;;;;;;;7.85;70.61;101073.13;4954953;28;20418;-52
2021/04/30 01:41:24;;;;;;;14.07;6.25;;;;;;;7.83;70.43;101075.25;4954864;28;20121;-55
2021/04/30 01:43:51;;;;;;;15.55;6.40;;;;;;;7.86;70.64;101078.31;4954875;28;20047;-51
2021/04/30 01:46:20;;;;;;;13.30;6.53;;;;;;;7.90;70.09;101081.38;4954901;28;20078;-54
2021/04/30 01:48:47;;;;;;;12.20;5.82;;;;;;;7.86;69.74;101078.31;4954505;28;20066;-52
2021/04/30 01:51:14;;;;;;;12.15;5.88;;;;;;;7.87;70.16;101081.84;4954424;28;20556;-53
2021/04/30 01:53:42;;;;;;;14.15;6.03;;;;;;;7.89;69.73;101088.69;4954666;28;20856;-53
2021/04/30 01:56:10;;;;;;;10.88;5.65;;;;;;;7.87;70.33;101085.38;4955087;28;20035;-50
2021/04/30 01:58:39;;;;;;;14.60;6.35;;;;;;;7.89;70.09;101087.88;4954605;28;20135;-51
2021/04/30 02:01:06;;;;;;;17.50;6.85;;;;;;;7.87;69.95;101087.28;4954823;28;20058;-51
2021/04/30 02:03:34;;;;;;;12.02;5.82;;;;;;;7.82;69.83;101087.19;4954834;28;20035;-52
2021/04/30 02:06:02;;;;;;;13.38;5.57;;;;;;;7.82;70.42;101090.72;4940878;29;20071;-55
2021/04/30 02:08:29;;;;;;;12.48;6.20;;;;;;;7.77;70.19;101090.63;4954830;28;20040;-52
2021/04/30 02:10:56;;;;;;;13.35;6.15;;;;;;;7.77;70.36;101084.34;4954083;28;20517;-53
2021/04/30 02:13:23;;;;;;;13.05;5.68;;;;;;;7.77;70.42;101089.78;4954355;28;20043;-54
2021/04/30 02:15:53;;;;;;;12.27;6.07;;;;;;;7.77;70.76;101087.91;4954325;28;20122;-55
2021/04/30 02:18:23;;;;;;;17.02;7.38;;;;;;;7.80;70.32;101084.72;4954599;28;20051;-54
2021/04/30 02:20:51;;;;;;;14.40;6.68;;;;;;;7.80;70.10;101084.72;4954046;28;20051;-52
2021/04/30 02:23:19;;;;;;;17.35;6.43;;;;;;;7.77;70.52;101087.06;4954587;28;20039;-57
2021/04/30 02:25:46;;;;;;;12.77;6.03;;;;;;;7.78;70.42;101086.03;4953994;28;20043;-50
2021/04/30 02:28:13;;;;;;;14.40;6.00;;;;;;;7.76;70.44;101082.72;4954531;28;20069;-52
2021/04/30 02:30:41;;;;;;;13.55;6.22;;;;;;;7.75;70.36;101087.34;4954159;28;20106;-52
2021/04/30 02:33:09;;;;;;;13.40;6.47;;;;;;;7.77;70.32;101090.63;4954282;28;20528;-52
2021/04/30 02:35:41;;;;;;;13.50;6.80;;;;;;;7.80;70.34;101092.03;4953783;28;20447;-52
2021/04/30 02:38:10;;;;;;;15.10;6.47;;;;;;;7.81;70.82;101096.38;4953948;28;20046;-51
2021/04/30 02:40:39;;;;;;;15.10;6.43;;;;;;;7.82;70.18;101095.34;4953765;28;20106;-50
2021/04/30 02:43:09;;;;;;;15.73;6.05;;;;;;;7.82;70.52;101092.63;4954267;28;20491;-52
2021/04/30 02:45:36;;;;;;;13.20;5.95;;;;;;;7.82;70.26;101092.63;4953803;28;20220;-54
2021/04/30 02:48:11;;;;;;;17.15;6.78;;;;;;;7.81;70.89;101099.91;4954230;28;20077;-52
2021/04/30 02:50:38;;;;;;;14.43;6.65;;;;;;;7.81;69.85;101096.38;4953779;28;20106;-54
2021/04/30 02:53:06;;;;;;;18.23;6.07;;;;;;;7.80;70.14;101092.84;4953843;28;20049;-53
2021/04/30 02:55:33;;;;;;;12.60;5.28;;;;;;;7.81;70.65;101105.34;4953706;28;20184;-53
2021/04/30 02:58:01;;;;;;;13.48;6.40;;;;;;;7.81;70.79;101104.50;4954219;28;20083;-52
2021/04/30 03:00:29;;;;;;;15.40;6.35;;;;;;;7.80;70.41;101097.47;4953700;28;20454;-51
2021/04/30 03:02:57;;;;;;;13.43;6.25;;;;;;;7.79;70.25;101098.50;4954051;28;20047;-52
2021/04/30 03:05:24;;;;;;;18.27;6.70;;;;;;;7.78;70.57;101099.59;4953652;28;20094;-51
2021/04/30 03:07:53;;;;;;;14.35;6.35;;;;;;;7.79;70.74;101102.06;4953800;28;20071;-53
2021/04/30 03:10:20;;;;;;;14.93;6.95;;;;;;;7.76;71.00;101094.38;4953429;28;20110;-52
2021/04/30 03:12:48;;;;;;;14.77;6.63;;;;;;;7.77;70.28;101103.34;4953647;28;20063;-54
2021/04/30 03:15:16;;;;;;;13.68;6.18;;;;;;;7.78;70.73;101094.97;4953773;28;20039;-51
2021/04/30 03:17:44;;;;;;;14.82;6.28;;;;;;;7.81;70.57;101094.47;4953573;28;20043;-52
2021/04/30 03:20:12;;;;;;;12.50;6.25;;;;;;;7.80;70.59;101097.47;4953522;28;20051;-50
2021/04/30 03:22:39;;;;;;;14.35;6.50;;;;;;;7.80;70.96;101097.47;4953485;28;20114;-52
2021/04/30 03:25:08;;;;;;;16.73;7.22;;;;;;;7.76;70.49;101091.69;4953436;28;20081;-50
2021/04/30 03:27:35;;;;;;;17.42;6.70;;;;;;;7.78;71.08;101100.41;4953498;28;20039;-50
2021/04/30 03:30:04;;;;;;;16.65;7.05;;;;;;;7.80;70.84;101098.28;4953614;28;20078;-50
2021/04/30 03:32:31;;;;;;;14.90;6.82;;;;;;;7.80;70.37;101100.16;4953088;28;20406;-53
2021/04/30 03:34:58;;;;;;;14.65;7.88;;;;;;;7.76;70.88;101093.56;4953613;28;20047;-53
2021/04/30 03:37:31;;;;;;;19.00;7.20;;;;;;;7.74;70.94;101093.00;4953269;28;20070;-53
2021/04/30 03:39:58;;;;;;;19.20;8.95;;;;;;;7.76;71.05;101093.56;4953434;28;20062;-53
2021/04/30 03:42:25;;;;;;;18.50;8.63;;;;;;;7.75;70.74;101089.22;4953821;28;20051;-52
2021/04/30 03:44:52;;;;;;;23.17;9.23;;;;;;;7.73;71.04;101094.06;4953678;28;20048;-52
2021/04/30 03:47:19;;;;;;;17.75;9.35;;;;;;;7.73;71.05;101085.94;4953003;28;20473;-52
2021/04/30 03:49:59;;;;;;;18.90;9.00;;;;;;;7.73;71.55;101085.94;4952186;28;20090;-53
2021/04/30 03:52:35;;;;;;;16.83;8.52;;;;;;;7.72;71.21;101090.53;4953549;28;20055;-53
2021/04/30 03:55:03;;;;;;;16.13;7.75;;;;;;;7.71;71.61;101088.88;4953447;28;20087;-53
2021/04/30 03:57:30;;;;;;;17.90;8.80;;;;;;;7.70;71.68;101098.09;4954163;28;20039;-53
2021/04/30 03:59:57;;;;;;;21.00;8.90;;;;;;;7.71;72.02;101088.06;4956994;28;20051;-52
2021/04/30 04:02:24;;;;;;;17.50;7.88;;;;;;;7.72;72.10;101092.41;4956722;28;20055;-52
2021/04/30 04:04:51;;;;;;;18.85;8.60;;;;;;;7.71;71.92;101091.59;4956777;28;20047;-52
2021/04/30 04:07:19;;;;;;;18.67;8.20;;;;;;;7.71;71.99;101091.59;4956806;28;20067;-51
2021/04/30 04:09:46;;;;;;;17.65;8.32;;;;;;;7.75;71.95;101094.66;4956614;28;20106;-53
2021/04/30 04:12:13;;;;;;;14.32;7.32;;;;;;;7.75;72.03;101090.03;4956440;28;20055;-53
2021/04/30 04:14:43;;;;;;;17.88;7.72;;;;;;;7.74;71.95;101087.56;4956958;28;20495;-52
2021/04/30 04:17:12;;;;;;;14.82;7.93;;;;;;;7.74;72.06;101093.00;4955921;28;20071;-52
2021/04/30 04:19:53;;;;;;;17.00;7.30;;;;;;;7.75;72.24;101094.66;4956803;28;20062;-54
2021/04/30 04:22:21;;;;;;;17.02;6.60;;;;;;;7.74;72.48;101093.00;4956797;28;20067;-51
2021/04/30 04:24:48;;;;;;;15.40;7.40;;;;;;;7.76;72.47;101105.25;4956606;28;20051;-55
2021/04/30 04:27:15;;;;;;;14.85;7.20;;;;;;;7.77;72.56;101106.06;4956434;28;20048;-54
2021/04/30 04:29:42;;;;;;;15.45;7.40;;;;;;;7.80;72.01;101108.31;4956995;28;20046;-55
2021/04/30 04:32:10;;;;;;;17.65;7.07;;;;;;;7.82;72.00;101106.19;4970949;28;20126;-54
2021/04/30 04:34:38;;;;;;;16.73;7.85;;;;;;;7.78;71.98;101105.00;4956330;28;20483;-54
2021/04/30 04:37:06;;;;;;;19.90;7.97;;;;;;;7.76;72.55;101097.09;4956147;28;20067;-52
2021/04/30 04:39:33;;;;;;;15.82;7.88;;;;;;;7.75;72.22;101100.91;4955742;28;20090;-56
2021/04/30 04:42:04;;;;;;;13.50;7.30;;;;;;;7.76;72.84;101104.44;4956171;28;20043;-53
2021/04/30 04:44:33;;;;;;;12.95;6.60;;;;;;;7.76;72.45;101104.44;4955835;29;20102;-54
2021/04/30 04:47:00;;;;;;;14.38;6.72;;;;;;;7.79;72.72;101107.50;4942815;29;20055;-53
2021/04/30 04:49:28;;;;;;;19.48;7.57;;;;;;;7.79;71.97;101107.50;4955799;28;20498;-54
2021/04/30 04:51:55;;;;;;;14.50;7.40;;;;;;;7.77;72.64;101114.19;4955753;28;20089;-54
2021/04/30 04:54:22;;;;;;;13.13;7.10;;;;;;;7.77;72.64;101114.19;4955862;28;20051;-52
2021/04/30 04:56:49;;;;;;;15.38;7.28;;;;;;;7.78;72.32;101122.09;4955986;28;20047;-52
2021/04/30 04:59:16;;;;;;;16.42;7.82;;;;;;;7.80;72.14;101124.59;4955425;28;20070;-51
2021/04/30 05:01:44;;;;;;;13.30;6.65;;;;;;;7.78;72.06;101121.28;4955657;28;20047;-52
2021/04/30 05:04:13;;;;;;;16.83;7.72;;;;;;;7.78;72.21;101124.81;4956003;28;20077;-51
2021/04/30 05:06:41;;;;;;;21.05;8.82;;;;;;;7.80;72.71;101127.28;4955457;28;20059;-54
2021/04/30 05:09:08;;;;;;;15.35;7.70;;;;;;;7.77;72.35;101128.59;4955441;28;20813;-52
2021/04/30 05:11:35;;;;;;;17.63;6.95;;;;;;;7.78;72.62;101127.53;4955138;28;20087;-52
2021/04/30 05:14:03;;;;;;;20.08;7.55;;;;;;;7.80;72.61;101135.44;4954907;28;20040;-53
2021/04/30 05:16:31;;;;;;;14.05;7.45;;;;;;;7.81;72.04;101131.66;4955674;28;20561;-51
2021/04/30 05:18:58;;;;;;;14.68;6.22;;;;;;;7.82;72.25;101134.13;4955501;28;20049;-52
2021/04/30 05:21:26;;;;;;;14.77;7.40;;;;;;;7.81;72.50;101132.47;4955804;28;20086;-56
2021/04/30 05:23:57;;;;;;;12.60;6.53;;;;;;;7.81;72.17;101135.16;4956051;29;20062;-56
2021/04/30 05:26:28;;;;;;;18.90;7.55;;;;;;;7.80;71.81;101130.81;4957775;28;20459;-56
2021/04/30 05:28:57;;;;;;;14.75;6.88;;;;;;;7.80;72.21;101136.25;4957362;28;20051;-56
2021/04/30 05:31:25;;;;;;;15.35;7.32;;;;;;;7.83;72.14;101134.94;4955977;28;20482;-53
2021/04/30 05:33:52;;;;;;;19.02;8.57;;;;;;;7.80;71.75;101143.56;4955718;28;20094;-52
2021/04/30 05:36:19;;;;;;;19.25;9.00;;;;;;;7.76;72.45;101142.41;4942375;29;20047;-51
2021/04/30 05:38:46;;;;;;;18.08;8.85;;;;;;;7.74;72.04;101139.09;4955182;28;20134;-52
2021/04/30 05:41:14;;;;;;;17.55;8.80;;;;;;;7.75;72.35;101140.75;4955170;28;20635;-52
2021/04/30 05:43:41;;;;;;;18.25;8.88;;;;;;;7.73;72.66;101140.19;4954865;28;20039;-52
2021/04/30 05:46:08;;;;;;;14.77;8.32;;;;;;;7.74;72.03;101152.66;4955232;28;20096;-51
2021/04/30 05:48:35;;;;;;;19.13;9.35;;;;;;;7.74;72.26;101147.25;4954930;28;20073;-53
2021/04/30 05:51:02;;;;;;;19.50;9.20;;;;;;;7.71;72.83;101159.38;4954680;28;20126;-50
2021/04/30 05:53:30;;;;;;;18.15;9.43;;;;;;;7.72;73.29;101162.91;4954461;28;20075;-52
2021/04/30 05:55:57;;;;;;;19.17;9.57;;;;;;;7.72;73.10;101161.06;4954854;28;20046;-52
2021/04/30 05:58:24;;;;;;;15.93;7.20;;;;;;;7.74;72.37;101164.31;4954681;28;20039;-52
2021/04/30 06:00:51;;;;;;;15.88;8.10;;;;;;;7.75;72.92;101159.75;4954663;28;20043;-53
2021/04/30 06:03:19;;;;;;;17.08;8.60;;;;;;;7.75;72.37;101165.19;4954228;28;20039;-52
2021/04/30 06:05:46;;;;;;;13.68;7.47;;;;;;;7.76;73.08;101169.53;4954512;28;20054;-50
2021/04/30 06:08:13;;;;;;;14.70;6.90;;;;;;;7.77;73.26;101168.44;4954538;28;20126;-54
2021/04/30 06:10:41;;;;;;;15.60;7.32;;;;;;;7.78;73.14;101159.25;4950601;28;20130;-51
2021/04/30 06:13:08;;;;;;;14.40;7.00;;;;;;;7.78;73.32;101165.50;4946344;28;20055;-51
2021/04/30 06:15:36;;;;;;;15.48;7.32;;;;;;;7.82;73.50;101155.00;4954194;28;20039;-52
2021/04/30 06:18:03;;;;;;;14.15;7.60;;;;;;;7.82;73.30;101160.44;4953905;28;20070;-51
2021/04/30 06:20:30;;;;;;;16.20;7.90;;;;;;;7.80;73.66;101159.84;4953957;28;20054;-53
2021/04/30 06:22:57;;;;;;;14.32;7.72;;;;;;;7.80;73.85;101159.84;4954621;28;20063;-53
2021/04/30 06:25:24;;;;;;;16.50;7.78;;;;;;;7.80;73.59;101162.56;4952954;28;20043;-52
2021/04/30 06:27:53;;;;;;;16.40;7.63;;;;;;;7.79;73.48;101158.19;4953145;28;20047;-52
2021/04/30 06:30:20;;;;;;;18.13;8.30;;;;;;;7.78;74.04;101170.13;4953896;28;20085;-53
2021/04/30 06:32:47;;;;;;;13.88;7.80;;;;;;;7.80;74.47;101170.69;4953831;28;20042;-53
2021/04/30 06:35:15;;;;;;;19.92;9.57;;;;;;;7.78;74.77;101161.97;4953591;28;20046;-55
2021/04/30 06:37:42;;;;;;;19.15;9.77;;;;;;;7.78;74.94;101157.38;4953151;28;20077;-52
2021/04/30 06:40:11;;;;;;;17.92;9.48;;;;;;;7.76;75.10;101158.69;4952402;28;20498;-55
2021/04/30 06:42:39;;;;;;;20.38;10.05;;;;;;;7.74;75.44;101160.78;4952390;28;20075;-54
2021/04/30 06:45:07;;;;;;;20.30;9.30;;;;;;;7.76;75.64;101169.53;4953751;28;20043;-55
2021/04/30 06:47:34;;;;;;;23.87;9.97;;;;;;;7.77;75.51;101173.88;4609930;28;10000779;-53
2021/04/30 06:50:02;;;;;;;16.38;8.00;;;;;;;7.80;75.58;101173.41;4951775;28;20049;-55
2021/04/30 06:52:30;;;;;;;15.88;7.43;;;;;;;7.82;75.40;101168.56;4951422;28;20110;-54
2021/04/30 06:54:57;;;;;;;15.60;6.55;;;;;;;7.89;75.33;101177.41;4951190;28;20150;-56
2021/04/30 06:57:39;;;;;;;16.00;6.75;;;;;;;7.92;75.98;101181.50;4951218;28;20058;-53
2021/04/30 07:00:07;;;;;;;15.43;6.50;;;;;;;7.92;75.56;101182.34;4951376;28;20106;-50
2021/04/30 07:02:34;;;;;;;18.40;8.35;;;;;;;7.95;75.03;101175.59;4951600;28;20114;-52
2021/04/30 07:05:02;;;;;;;20.08;8.88;;;;;;;7.92;75.45;101186.94;4951398;28;20043;-50
2021/04/30 07:07:31;;;;;;;14.80;8.10;;;;;;;7.89;75.48;101185.53;4951054;28;20055;-49
2021/04/30 07:09:58;;;;;;;13.98;7.45;;;;;;;7.85;76.07;101184.34;4949928;28;20054;-54
2021/04/30 07:12:25;;;;;;;17.92;8.15;;;;;;;7.85;75.53;101184.34;4950623;28;20118;-51
2021/04/30 07:14:52;;;;;;;12.52;6.70;;;;;;;7.87;76.08;101184.94;4951670;28;20039;-51
2021/04/30 07:17:19;;;;;;;14.75;7.60;;;;;;;7.87;76.47;101182.22;4950915;28;20106;-53
2021/04/30 07:19:46;;;;;;;16.08;8.52;;;;;;;7.88;75.81;101181.16;4950902;28;20450;-53
2021/04/30 07:22:14;;;;;;;16.88;7.43;;;;;;;7.92;76.05;101187.75;4950854;28;20364;-54
2021/04/30 07:24:42;;;;;;;16.05;7.32;;;;;;;7.96;75.83;101193.50;4950283;28;20130;-54
2021/04/30 07:27:11;;;;;;;14.55;7.47;;;;;;;7.96;75.98;101193.50;4950530;28;20047;-54
2021/04/30 07:29:48;;;;;;;17.98;7.95;;;;;;;7.95;76.41;101192.69;4950634;28;20051;-54
2021/04/30 07:32:16;;;;;;;15.82;7.50;;;;;;;7.95;76.79;101194.59;4950923;28;20062;-55
2021/04/30 07:34:43;;;;;;;15.07;7.57;;;;;;;7.94;76.26;101201.91;4954833;28;20031;-54
2021/04/30 07:37:11;;;;;;;14.20;7.55;;;;;;;7.97;76.72;101201.41;4954774;28;20521;-56
2021/04/30 07:39:40;;;;;;;14.43;7.22;;;;;;;7.97;76.49;101201.41;4953826;28;20044;-53
2021/04/30 07:42:09;;;;;;;16.40;8.20;;;;;;;7.97;76.45;101197.88;4956977;28;20070;-54
2021/04/30 07:44:39;;;;;;;15.93;8.20;;;;;;;7.98;77.04;101200.34;4956832;28;20047;-55
2021/04/30 07:47:07;;;;;;;18.15;7.80;;;;;;;8.01;76.79;101199.88;4957099;28;20071;-54
2021/04/30 07:49:35;;;;;;;13.88;7.50;;;;;;;8.02;76.72;101197.97;4956342;28;20549;-55
2021/04/30 07:52:03;;;;;;;14.63;7.30;;;;;;;8.01;76.52;101191.75;4955211;28;20035;-54
2021/04/30 07:54:31;;;;;;;16.80;7.80;;;;;;;8.05;76.91;101182.03;4956494;28;20533;-54
2021/04/30 07:56:59;;;;;;;15.43;7.60;;;;;;;8.07;76.52;101196.19;4955510;28;20086;-51
2021/04/30 07:59:26;;;;;;;13.52;6.68;;;;;;;8.09;76.26;101191.34;4955270;29;20047;-53
2021/04/30 08:01:54;;;;;;;17.65;8.00;;;;;;;8.11;76.47;101196.53;4956592;28;20054;-52
2021/04/30 08:04:21;;;;;;;18.90;7.85;;;;;;;8.13;76.40;101188.13;4956831;28;20123;-53
2021/04/30 08:06:48;;;;;;;18.63;8.30;;;;;;;8.15;77.00;101191.44;4956026;28;20035;-55
2021/04/30 08:09:15;;;;;;;19.83;8.52;;;;;;;8.15;76.38;101186.00;4955394;28;20046;-56
2021/04/30 08:11:43;;;;;;;20.65;9.40;;;;;;;8.16;76.58;101184.97;4956118;28;20397;-53
2021/04/30 08:14:10;;;;;;;19.45;9.05;;;;;;;8.15;76.34;101188.72;4956312;28;20031;-53
2021/04/30 08:16:38;;;;;;;22.13;8.27;;;;;;;8.20;76.91;101191.53;4954464;29;20059;-50
2021/04/30 08:19:06;;;;;;;16.80;7.75;;;;;;;8.24;77.05;101195.41;4955666;28;20043;-52
2021/04/30 08:21:35;;;;;;;19.30;7.47;;;;;;;8.30;76.64;101195.28;4955944;28;20059;-51
2021/04/30 08:24:03;;;;;;;17.30;9.45;;;;;;;8.31;75.78;101202.34;4955584;28;20039;-52
2021/04/30 08:26:30;;;;;;;19.38;9.93;;;;;;;8.29;75.97;101196.31;4955925;29;20039;-55
2021/04/30 08:28:58;;;;;;;16.42;8.93;;;;;;;8.29;75.83;101192.78;4954727;29;20087;-50
2021/04/30 08:31:27;;;;;;;16.85;8.35;;;;;;;8.29;75.99;101203.66;4955579;28;20043;-54
2021/04/30 08:33:55;;;;;;;17.13;8.70;;;;;;;8.35;75.81;101202.69;4954234;29;20062;-53
2021/04/30 08:36:22;;;;;;;18.02;7.85;;;;;;;8.42;75.73;101202.53;4956206;28;20106;-54
2021/04/30 08:38:49;;;;;;;17.73;9.35;;;;;;;8.44;75.84;101203.13;4955396;28;20471;-52
2021/04/30 08:41:18;;;;;;;16.02;8.93;;;;;;;8.42;76.45;101210.69;4955178;28;20098;-53
2021/04/30 08:43:47;;;;;;;14.38;8.57;;;;;;;8.41;75.65;101207.16;4955838;28;20043;-53
2021/04/30 08:46:14;;;;;;;15.15;9.30;;;;;;;8.41;75.11;101206.34;4955728;28;20046;-53
2021/04/30 08:48:42;;;;;;;16.15;8.52;;;;;;;8.42;75.80;101211.53;4955785;28;20086;-53
2021/04/30 08:51:10;;;;;;;16.02;8.30;;;;;;;8.43;75.09;101210.47;4955611;28;20043;-55
2021/04/30 08:53:40;;;;;;;19.60;9.35;;;;;;;8.43;75.00;101210.47;4955507;28;20047;-53
2021/04/30 08:56:07;;;;;;;15.85;8.80;;;;;;;8.42;75.27;101213.41;4955541;28;20036;-54
2021/04/30 08:58:36;;;;;;;17.98;8.88;;;;;;;8.42;74.83;101213.41;4955358;28;20509;-52
2021/04/30 09:01:04;;;;;;;19.40;8.55;;;;;;;8.43;75.23;101221.31;4955796;28;20048;-53
2021/04/30 09:03:34;;;;;;;14.25;7.50;;;;;;;8.47;75.29;101214.34;4955491;28;20082;-51
2021/04/30 09:06:02;;;;;;;17.05;8.32;;;;;;;8.55;74.90;101218.53;4955286;28;20040;-53
2021/04/30 09:08:29;;;;;;;16.88;8.45;;;;;;;8.58;74.63;101223.47;4955349;28;20074;-52
2021/04/30 09:11:09;;;;;;;15.55;7.75;;;;;;;8.59;74.71;101230.56;4954534;28;20379;-52
2021/04/30 09:13:40;;;;;;;15.07;8.70;;;;;;;8.57;74.71;101231.88;4954872;28;20063;-51
2021/04/30 09:16:08;;;;;;;17.95;7.47;;;;;;;8.62;74.52;101240.13;4970447;28;20043;-52
2021/04/30 09:18:35;;;;;;;15.32;7.78;;;;;;;8.61;75.16;101239.31;4954963;28;20083;-53
2021/04/30 09:21:11;;;;;;;15.60;7.70;;;;;;;8.64;75.44;101235.28;4954725;28;20039;-54
2021/04/30 09:23:40;;;;;;;14.80;8.25;;;;;;;8.63;74.86;101236.31;4955103;28;20078;-53
2021/04/30 09:26:43;;;;;;;18.30;7.68;;;;;;;8.63;75.16;101236.31;4949412;29;20051;-50
2021/04/30 09:29:12;;;;;;;13.82;6.75;;;;;;;8.64;74.86;101238.81;4933567;29;20371;-53
2021/04/30 09:31:46;;;;;;;13.90;7.22;;;;;;;8.69;74.82;101240.78;4933424;29;20099;-53
2021/04/30 09:34:28;;;;;;;16.77;7.38;;;;;;;8.72;74.87;101241.09;4933534;29;20079;-54
2021/04/30 09:37:04;;;;;;;15.00;7.72;;;;;;;8.76;74.70;101238.75;4920577;29;20091;-54
2021/04/30 09:39:50;;;;;;;13.60;7.15;;;;;;;8.80;74.12;101237.16;4932112;29;20083;-53
2021/04/30 09:42:21;;;;;;;14.65;7.05;;;;;;;8.85;73.93;101233.72;4933327;29;20047;-54
2021/04/30 09:44:52;;;;;;;13.02;7.22;;;;;;;8.90;73.76;101239.25;4932972;29;20111;-52
2021/04/30 09:47:25;;;;;;;15.85;7.30;;;;;;;8.94;74.42;101238.50;4933143;29;20103;-53
2021/04/30 09:49:56;;;;;;;14.88;8.13;;;;;;;8.98;73.98;101244.28;4932378;29;20087;-51
2021/04/30 09:52:24;;;;;;;14.55;7.22;;;;;;;8.99;72.31;101250.53;4933131;29;20054;-49
2021/04/30 09:54:53;;;;;;;15.02;6.63;;;;;;;9.00;72.59;101236.69;4932425;29;20044;-55
2021/04/30 09:57:25;;;;;;;13.73;6.57;;;;;;;9.05;72.29;101249.53;4933121;29;20058;-53
2021/04/30 10:00:11;;;;;;;12.32;7.00;;;;;;;9.13;72.24;101241.78;4933145;29;20186;-55
2021/04/30 10:02:46;;;;;;;14.50;6.88;;;;;;;9.17;72.00;101239.41;4933821;29;20051;-53
2021/04/30 10:05:16;;;;;;;13.40;6.35;;;;;;;9.22;71.68;101244.09;4949869;29;20043;-54
2021/04/30 10:08:14;;;;;;;12.00;6.05;;;;;;;9.26;71.88;101234.34;4966657;28;20043;-54
2021/04/30 10:10:41;;;;;;;15.63;5.93;;;;;;;9.33;72.45;101230.41;4953918;28;20039;-51
2021/04/30 10:13:08;;;;;;;13.05;6.20;;;;;;;9.42;71.91;101235.41;4954678;28;20055;-54
2021/04/30 10:15:36;;;;;;;12.98;6.28;;;;;;;9.41;71.56;101225.63;4954280;28;20091;-53
2021/04/30 10:18:08;;;;;;;12.32;6.72;;;;;;;9.46;71.40;101223.78;4954151;28;20085;-54
2021/04/30 10:20:35;;;;;;;11.23;6.70;;;;;;;9.53;70.42;101224.44;4953827;28;20035;-54
2021/04/30 10:23:06;;;;;;;12.40;7.78;;;;;;;9.54;70.58;101226.06;4954546;28;20047;-54
2021/04/30 10:25:34;;;;;;;10.98;6.18;;;;;;;9.57;70.68;101222.00;4954169;28;20047;-54
2021/04/30 10:28:02;;;;;;;16.10;7.57;;;;;;;9.56;70.25;101215.75;4953081;29;20046;-55
2021/04/30 10:30:36;;;;;;;14.48;7.60;;;;;;;9.55;70.55;101216.84;4952793;29;20051;-55
2021/04/30 10:33:26;;;;;;;10.70;6.57;;;;;;;9.55;69.56;101216.84;4941007;29;20042;-52
2021/04/30 10:36:14;;;;;;;11.82;6.90;;;;;;;9.56;69.63;101223.09;4953945;28;20130;-55
2021/04/30 10:38:50;;;;;;;11.77;6.53;;;;;;;9.57;69.68;101213.84;4953742;28;20047;-54
2021/04/30 10:41:41;;;;;;;12.88;6.68;;;;;;;9.72;71.55;101210.53;4967988;28;20046;-53
2021/04/30 10:44:21;;;;;;;14.40;8.23;;;;;;;9.71;71.64;101209.69;4953800;28;20051;-53
2021/04/30 10:47:11;;;;;;;17.85;8.75;;;;;;;9.70;71.31;101216.22;4953673;28;20496;-49
2021/04/30 10:49:41;;;;;;;13.40;4.95;;;;;;;9.74;71.91;101214.66;4950537;28;20511;-51
2021/04/30 10:52:19;;;;;;;12.52;7.13;;;;;;;9.88;72.02;101215.06;4940255;29;20454;-49
2021/04/30 10:55:07;;;;;;;12.93;6.90;;;;;;;9.89;71.10;101215.91;4953894;28;20043;-48
2021/04/30 10:58:02;;;;;;;17.85;7.18;;;;;;;9.98;71.15;101208.91;4950037;29;20063;-52
2021/04/30 11:00:41;;;;;;;15.38;8.73;;;;;;;9.94;69.64;101214.06;4952673;28;20533;-52
2021/04/30 11:03:12;;;;;;;16.27;8.13;;;;;;;9.93;69.72;101214.31;4953180;28;20446;-51
2021/04/30 11:05:54;;;;;;;19.73;10.48;;;;;;;9.92;69.86;101210.78;4953669;28;20071;-51
2021/04/30 11:08:46;;;;;;;17.75;9.23;;;;;;;9.94;69.63;101207.81;4957359;28;20051;-50
2021/04/30 11:11:13;;;;;;;13.18;6.05;;;;;;;10.01;69.91;101219.31;4956321;29;20043;-51
2021/04/30 11:13:40;;;;;;;13.13;6.78;;;;;;;10.12;69.56;101210.16;4957733;28;20055;-52
2021/04/30 11:16:09;;;;;;;16.67;9.73;;;;;;;10.11;68.16;101207.72;4957389;28;20047;-50
2021/04/30 11:19:00;;;;;;;16.90;10.25;;;;;;;10.15;68.46;101206.97;4957219;28;20043;-52
2021/04/30 11:21:51;;;;;;;12.35;7.32;;;;;;;10.30;71.42;101205.50;4957058;28;20035;-51
2021/04/30 11:24:44;;;;;;;18.90;9.52;;;;;;;10.29;66.01;101212.03;4957522;29;20102;-53
2021/04/30 11:27:20;;;;;;;16.77;9.35;;;;;;;10.24;66.96;101199.13;4957224;28;20054;-53
2021/04/30 11:29:47;;;;;;;15.70;7.63;;;;;;;10.29;67.93;101195.69;4956860;28;20043;-53
2021/04/30 11:32:24;;;;;;;19.88;11.80;;;;;;;10.22;65.95;101196.69;4956478;28;20058;-54
2021/04/30 11:34:58;;;;;;;20.70;12.45;;;;;;;10.17;66.23;101196.66;4957359;28;20043;-52
2021/04/30 11:37:28;;;;;;;17.98;13.00;;;;;;;10.14;66.75;101194.41;4955150;29;20458;-54